Time;durP1;ratioP1;P1;durP2;ratioP2;P2;SDS_P1;SDS_P2;PMS_P1;PMS_P2;Temp;Humidity;BMP_temperature;BMP_pressure;BME280_temperature;BME280_humidity;BME280_pressure;Samples;Min_cycle;Max_cycle;Signal;HPM_P1;HPM_P2
2022/10/21 00:01:15;;;;;;;19.42;14.32;;;;;;;15.43;87.83;100553.59;3609264;39;20054;-59
2022/10/21 00:03:42;;;;;;;19.08;13.82;;;;;;;15.39;88.21;100548.59;3608535;39;20274;-59
2022/10/21 00:06:09;;;;;;;18.10;14.68;;;;;;;15.32;88.41;100545.56;3606059;39;20164;-59
2022/10/21 00:08:36;;;;;;;16.67;14.60;;;;;;;15.28;88.21;100542.22;3606562;39;20048;-59
2022/10/21 00:11:06;;;;;;;19.83;13.90;;;;;;;15.22;87.28;100541.91;3608681;39;20390;-59
2022/10/21 00:13:35;;;;;;;18.23;14.68;;;;;;;15.15;88.01;100551.53;3608154;39;20051;-59
2022/10/21 00:16:05;;;;;;;17.48;14.32;;;;;;;15.14;88.06;100557.97;3606126;39;20091;-59
2022/10/21 00:18:33;;;;;;;18.10;14.13;;;;;;;15.11;87.73;100541.97;3595184;39;20053;-58
2022/10/21 00:20:59;;;;;;;20.60;14.35;;;;;;;15.08;87.90;100546.66;3606481;39;20055;-59
2022/10/21 00:23:26;;;;;;;19.85;13.85;;;;;;;15.04;88.28;100539.78;3607797;39;20051;-59
2022/10/21 00:25:58;;;;;;;20.73;14.35;;;;;;;15.00;88.15;100526.63;3609103;39;20392;-58
2022/10/21 00:28:25;;;;;;;22.55;15.35;;;;;;;14.88;88.85;100517.72;3607997;39;20083;-59
2022/10/21 00:30:50;;;;;;;19.65;15.15;;;;;;;14.97;89.91;100522.38;3602719;39;20047;-60
2022/10/21 00:33:16;;;;;;;20.98;15.75;;;;;;;14.98;90.67;100524.06;3605642;39;20073;-59
2022/10/21 00:35:42;;;;;;;23.17;16.13;;;;;;;14.98;89.89;100532.19;3606747;39;20051;-59
2022/10/21 00:38:07;;;;;;;19.98;16.48;;;;;;;15.00;90.20;100526.63;3607620;39;20063;-59
2022/10/21 00:40:33;;;;;;;16.88;15.13;;;;;;;15.00;90.39;100535.63;3609566;39;20050;-59
2022/10/21 00:42:59;;;;;;;20.95;15.80;;;;;;;15.02;90.59;100528.22;3605117;39;20074;-60
2022/10/21 00:45:28;;;;;;;19.73;16.10;;;;;;;15.04;91.33;100531.66;3606630;39;20056;-60
2022/10/21 00:48:06;;;;;;;26.27;15.88;;;;;;;15.03;91.44;100529.06;3606263;39;20430;-60
2022/10/21 00:50:35;;;;;;;21.95;15.35;;;;;;;15.11;91.18;100541.97;3606246;39;20365;-60
2022/10/21 00:53:06;;;;;;;23.50;16.27;;;;;;;15.17;91.73;100538.75;3607132;39;20094;-60
2022/10/21 00:55:42;;;;;;;20.48;16.02;;;;;;;15.20;91.95;100525.81;3606156;39;20058;-59
2022/10/21 00:58:08;;;;;;;22.20;16.52;;;;;;;15.20;91.24;100506.00;3604536;39;20067;-59
2022/10/21 01:00:34;;;;;;;23.48;16.80;;;;;;;15.26;91.30;100517.16;3607270;39;20061;-60
2022/10/21 01:03:00;;;;;;;21.13;16.67;;;;;;;15.28;92.10;100515.16;3609906;39;20079;-59
2022/10/21 01:05:27;;;;;;;27.85;19.10;;;;;;;15.29;91.04;100505.19;3598259;39;20096;-60
2022/10/21 01:07:53;;;;;;;23.30;16.75;;;;;;;15.31;91.79;100508.63;3604562;39;20054;-58
2022/10/21 01:10:19;;;;;;;23.85;15.90;;;;;;;15.32;91.30;100502.22;3607303;39;20048;-59
2022/10/21 01:13:20;;;;;;;18.23;14.82;;;;;;;15.26;91.21;100495.50;3606562;39;20101;-58
2022/10/21 01:16:25;;;;;;;20.52;14.40;;;;;;;15.05;90.94;100459.44;3606188;39;20112;-59
2022/10/21 01:19:10;;;;;;;19.38;14.13;;;;;;;15.29;91.24;100495.22;3608684;39;20163;-59
2022/10/21 01:21:53;;;;;;;18.85;14.40;;;;;;;15.29;90.60;100494.38;3606577;39;20058;-59
2022/10/21 01:24:49;;;;;;;22.33;14.37;;;;;;;15.24;90.25;100485.78;3607356;39;20055;-59
2022/10/21 01:27:24;;;;;;;20.52;13.80;;;;;;;15.23;90.17;100479.50;3608431;39;20098;-59
2022/10/21 01:30:29;;;;;;;17.95;13.98;;;;;;;15.20;90.41;100473.50;3607136;39;20399;-59
2022/10/21 01:33:23;;;;;;;16.98;13.57;;;;;;;15.18;91.29;100472.75;3610073;39;20050;-58
2022/10/21 01:36:04;;;;;;;20.80;14.13;;;;;;;15.17;90.83;100473.75;3609506;39;20050;-60
2022/10/21 01:38:55;;;;;;;17.48;13.13;;;;;;;15.11;90.69;100460.75;3605722;39;20054;-58
2022/10/21 01:41:39;;;;;;;20.42;13.98;;;;;;;15.13;91.09;100467.75;3609382;39;20054;-59
2022/10/21 01:44:42;;;;;;;16.98;13.98;;;;;;;15.08;90.76;100460.03;3607290;39;20088;-60
2022/10/21 01:47:19;;;;;;;16.48;13.30;;;;;;;15.08;91.49;100453.75;3611345;39;20043;-59
2022/10/21 01:50:05;;;;;;;18.98;14.13;;;;;;;15.09;91.02;100456.31;3606351;39;20059;-59
2022/10/21 01:52:31;;;;;;;16.73;12.32;;;;;;;15.02;90.85;100441.59;3608558;39;20054;-58
2022/10/21 01:55:05;;;;;;;18.70;12.27;;;;;;;15.01;90.67;100437.19;3607608;39;20069;-58
2022/10/21 01:57:53;;;;;;;17.17;12.75;;;;;;;15.01;90.84;100439.91;3606459;39;20058;-59
2022/10/21 02:00:19;;;;;;;17.92;13.05;;;;;;;14.97;90.65;100424.03;3611718;39;20123;-59
2022/10/21 02:02:48;;;;;;;15.07;12.13;;;;;;;15.01;90.84;100437.19;3609622;39;20059;-59
2022/10/21 02:05:22;;;;;;;17.25;12.93;;;;;;;15.01;90.95;100437.19;3606140;39;20090;-60
2022/10/21 02:07:49;;;;;;;17.38;12.55;;;;;;;14.99;90.48;100433.75;3607462;39;20344;-60
2022/10/21 02:10:17;;;;;;;18.08;11.88;;;;;;;14.98;90.38;100437.44;3608895;39;20157;-59
2022/10/21 02:12:49;;;;;;;19.15;12.50;;;;;;;14.84;90.51;100408.00;3609550;39;20562;-60
2022/10/21 02:15:20;;;;;;;17.98;11.85;;;;;;;14.95;90.87;100426.03;3608471;39;20314;-59
2022/10/21 02:17:59;;;;;;;17.92;11.75;;;;;;;14.93;91.03;100412.63;3606192;39;20051;-63
2022/10/21 02:20:33;;;;;;;13.15;11.32;;;;;;;14.89;90.47;100411.19;3610471;39;20046;-59
2022/10/21 02:23:01;;;;;;;15.48;11.60;;;;;;;14.88;90.20;100414.88;3609605;39;20071;-60
2022/10/21 02:25:36;;;;;;;15.52;11.65;;;;;;;14.85;89.05;100404.34;3609294;39;20510;-60
2022/10/21 02:28:03;;;;;;;13.95;11.18;;;;;;;14.78;88.34;100414.81;3608141;39;20058;-60
2022/10/21 02:30:48;;;;;;;17.48;11.77;;;;;;;14.71;88.79;100420.88;3608117;39;20334;-60
2022/10/21 02:33:43;;;;;;;12.48;11.15;;;;;;;14.58;87.86;100408.41;3611102;39;20102;-59
2022/10/21 02:36:27;;;;;;;16.42;11.70;;;;;;;14.57;88.39;100425.63;3609475;39;20055;-60
2022/10/21 02:39:09;;;;;;;16.98;11.07;;;;;;;14.52;88.97;100419.75;3608395;39;20039;-60
2022/10/21 02:41:39;;;;;;;14.93;11.15;;;;;;;14.53;88.86;100415.22;3606266;39;20051;-60
2022/10/21 02:44:07;;;;;;;15.25;10.95;;;;;;;14.54;89.62;100417.78;3610340;39;20059;-60
2022/10/21 02:46:43;;;;;;;17.20;10.95;;;;;;;14.53;90.18;100418.78;3610237;39;20144;-60
2022/10/21 02:49:09;;;;;;;16.23;12.52;;;;;;;14.55;90.48;100411.38;3608867;39;20147;-58
2022/10/21 02:51:35;;;;;;;17.85;12.25;;;;;;;14.49;91.04;100392.91;3609020;39;20071;-60
2022/10/21 02:54:01;;;;;;;19.73;11.88;;;;;;;14.53;90.78;100397.13;3609572;39;20065;-59
2022/10/21 02:56:27;;;;;;;14.65;11.90;;;;;;;14.55;90.21;100399.69;3606462;39;20095;-60
2022/10/21 02:58:53;;;;;;;15.50;11.60;;;;;;;14.28;90.62;100362.31;3608894;39;20051;-60
2022/10/21 03:01:19;;;;;;;16.00;11.23;;;;;;;14.54;90.54;100396.13;3608440;39;20051;-60
2022/10/21 03:03:44;;;;;;;13.82;10.90;;;;;;;14.51;90.10;100399.09;3609332;39;20418;-60
2022/10/21 03:06:10;;;;;;;17.67;11.52;;;;;;;14.49;90.44;100390.22;3609979;39;20070;-60
2022/10/21 03:08:36;;;;;;;15.10;11.23;;;;;;;14.44;90.65;100399.72;3610134;39;20349;-61
2022/10/21 03:11:01;;;;;;;14.07;11.07;;;;;;;14.51;91.48;100396.41;3609732;39;20065;-60
2022/10/21 03:13:27;;;;;;;16.55;11.10;;;;;;;14.52;90.76;100403.50;3608966;39;20070;-60
2022/10/21 03:15:52;;;;;;;12.40;10.15;;;;;;;14.48;91.11;100399.31;3608673;39;20063;-60
2022/10/21 03:18:18;;;;;;;15.20;10.77;;;;;;;14.46;90.85;100392.31;3609035;39;20286;-60
2022/10/21 03:20:48;;;;;;;15.80;10.18;;;;;;;14.46;90.29;100398.63;3610464;39;20046;-60
2022/10/21 03:23:13;;;;;;;18.60;11.07;;;;;;;14.43;90.55;100398.88;3609861;39;20061;-59
2022/10/21 03:25:39;;;;;;;13.70;9.40;;;;;;;14.43;90.53;100400.69;3610101;39;20055;-59
2022/10/21 03:28:05;;;;;;;12.77;9.73;;;;;;;14.39;89.62;100408.22;3606180;39;20274;-60
2022/10/21 03:30:30;;;;;;;16.77;10.07;;;;;;;14.34;89.45;100416.72;3609849;39;20299;-60
2022/10/21 03:32:56;;;;;;;13.73;9.63;;;;;;;14.25;89.27;100401.28;3612451;39;20387;-60
2022/10/21 03:35:21;;;;;;;13.52;9.68;;;;;;;14.27;89.56;100414.66;3609664;39;20057;-60
2022/10/21 03:37:47;;;;;;;13.65;9.93;;;;;;;14.27;89.99;100415.53;3611841;39;20071;-60
2022/10/21 03:40:13;;;;;;;15.82;9.70;;;;;;;14.26;90.77;100392.16;3610525;39;20317;-60
2022/10/21 03:42:38;;;;;;;13.38;9.98;;;;;;;14.26;90.04;100399.44;3605214;39;20050;-58
2022/10/21 03:45:05;;;;;;;14.57;10.07;;;;;;;14.25;90.11;100395.88;3613444;39;20081;-60
2022/10/21 03:47:30;;;;;;;11.45;10.00;;;;;;;14.24;90.18;100398.69;3611045;39;20055;-59
2022/10/21 03:49:57;;;;;;;16.33;9.60;;;;;;;14.25;90.75;100397.72;3611061;39;20045;-59
2022/10/21 03:52:22;;;;;;;17.55;9.82;;;;;;;14.25;90.38;100395.03;3613320;39;20027;-60
2022/10/21 03:54:48;;;;;;;14.65;9.50;;;;;;;14.23;90.02;100394.28;3612516;39;20046;-59
2022/10/21 03:57:14;;;;;;;12.45;9.23;;;;;;;14.16;89.41;100392.09;3600789;39;20046;-60
2022/10/21 03:59:39;;;;;;;15.38;9.10;;;;;;;14.10;89.18;100389.03;3612420;39;20061;-59
2022/10/21 04:02:05;;;;;;;12.75;8.95;;;;;;;14.11;89.78;100382.63;3612165;39;20374;-61
2022/10/21 04:04:31;;;;;;;13.65;9.02;;;;;;;14.09;90.13;100393.59;3612496;39;21297;-60
2022/10/21 04:06:56;;;;;;;10.23;8.40;;;;;;;14.06;89.29;100388.44;3615551;39;20051;-60
2022/10/21 04:09:22;;;;;;;13.30;8.32;;;;;;;14.03;88.86;100391.41;3610411;39;20058;-59
2022/10/21 04:11:47;;;;;;;12.15;8.60;;;;;;;13.97;88.46;100397.31;3612934;39;20057;-60
2022/10/21 04:14:13;;;;;;;13.63;7.72;;;;;;;13.72;87.70;100360.66;3613142;39;20484;-60
2022/10/21 04:16:39;;;;;;;11.05;8.27;;;;;;;13.83;87.35;100394.91;3612306;39;20366;-60
2022/10/21 04:19:04;;;;;;;11.70;7.97;;;;;;;13.78;87.95;100399.81;3613046;39;20050;-60
2022/10/21 04:21:30;;;;;;;10.98;7.75;;;;;;;13.70;87.59;100395.91;3611603;39;20301;-60
2022/10/21 04:23:55;;;;;;;14.65;7.80;;;;;;;13.64;87.05;100388.31;3612336;39;20053;-60
2022/10/21 04:26:21;;;;;;;13.73;8.00;;;;;;;13.62;87.90;100392.97;3612550;39;20051;-61
2022/10/21 04:28:46;;;;;;;15.98;7.82;;;;;;;13.58;88.35;100396.91;3612369;39;20055;-60
2022/10/21 04:31:12;;;;;;;11.98;7.22;;;;;;;13.58;88.48;100396.06;3610483;39;20047;-60
2022/10/21 04:33:38;;;;;;;11.55;7.63;;;;;;;13.57;88.97;100405.97;3612423;39;20411;-60
2022/10/21 04:36:04;;;;;;;10.85;7.43;;;;;;;13.58;89.10;100402.31;3609446;39;20082;-59
2022/10/21 04:38:29;;;;;;;9.38;7.13;;;;;;;13.59;89.31;100406.72;3607472;39;20062;-61
2022/10/21 04:41:01;;;;;;;12.40;6.80;;;;;;;13.62;89.85;100403.78;3613290;39;20047;-60
2022/10/21 04:43:28;;;;;;;11.50;6.82;;;;;;;13.66;90.14;100410.63;3607727;39;20079;-60
2022/10/21 04:45:54;;;;;;;8.32;6.30;;;;;;;13.68;90.06;100408.69;3613181;39;20066;-60
2022/10/21 04:48:21;;;;;;;10.18;5.88;;;;;;;13.75;90.72;100411.72;3612605;39;20066;-61
2022/10/21 04:50:49;;;;;;;10.05;6.47;;;;;;;13.79;90.70;100404.22;3613388;39;20046;-60
2022/10/21 04:53:15;;;;;;;13.40;6.75;;;;;;;13.83;90.27;100400.31;3612910;39;20059;-60
2022/10/21 04:55:41;;;;;;;8.82;6.00;;;;;;;13.84;89.84;100392.06;3611226;39;20427;-61
2022/10/21 04:58:06;;;;;;;7.65;5.35;;;;;;;13.84;90.05;100388.50;3611104;39;20062;-60
2022/10/21 05:00:32;;;;;;;8.65;5.65;;;;;;;13.91;89.96;100392.41;3609370;39;20650;-61
2022/10/21 05:02:58;;;;;;;9.68;5.40;;;;;;;13.93;89.73;100390.47;3612560;39;20047;-60
2022/10/21 05:05:24;;;;;;;8.15;4.95;;;;;;;13.80;89.53;100369.00;3614798;39;20047;-61
2022/10/21 05:07:49;;;;;;;11.32;5.15;;;;;;;13.97;89.88;100397.31;3611311;39;20063;-61
2022/10/21 05:10:15;;;;;;;6.93;5.63;;;;;;;13.91;89.59;100379.75;3604932;39;20097;-61
2022/10/21 05:12:40;;;;;;;6.85;5.03;;;;;;;13.99;88.84;100395.34;3613783;39;20156;-60
2022/10/21 05:15:07;;;;;;;8.93;4.60;;;;;;;14.00;88.70;100390.81;3613540;39;20085;-60
2022/10/21 05:17:32;;;;;;;13.15;5.75;;;;;;;14.02;89.50;100389.69;3615510;39;20055;-61
2022/10/21 05:19:58;;;;;;;7.03;5.75;;;;;;;14.05;89.50;100385.84;3615537;39;20641;-60
2022/10/21 05:22:23;;;;;;;7.35;4.93;;;;;;;14.06;88.69;100380.34;3613916;39;20066;-60
2022/10/21 05:24:49;;;;;;;7.82;4.78;;;;;;;14.03;88.60;100375.19;3613943;39;20059;-60
2022/10/21 05:27:15;;;;;;;8.85;5.00;;;;;;;14.05;88.41;100378.63;3614379;39;20142;-60
2022/10/21 05:29:40;;;;;;;9.88;4.60;;;;;;;14.07;88.60;100376.63;3610645;39;20066;-60
2022/10/21 05:32:06;;;;;;;6.22;4.88;;;;;;;14.04;88.55;100371.50;3612215;39;20047;-59
2022/10/21 05:34:31;;;;;;;6.75;5.18;;;;;;;14.03;88.27;100375.19;3614309;39;20053;-60
2022/10/21 05:36:57;;;;;;;9.80;5.18;;;;;;;14.02;87.61;100368.06;3614305;39;20219;-60
2022/10/21 05:39:23;;;;;;;9.80;4.88;;;;;;;14.00;88.05;100353.81;3612486;39;20051;-60
2022/10/21 05:41:48;;;;;;;7.22;4.88;;;;;;;13.96;87.44;100352.38;3613291;39;20115;-60
2022/10/21 05:44:14;;;;;;;8.60;4.65;;;;;;;13.96;87.56;100356.94;3614201;39;20159;-60
2022/10/21 05:46:40;;;;;;;9.00;4.63;;;;;;;13.90;86.61;100352.88;3612018;39;20056;-59
2022/10/21 05:49:06;;;;;;;7.30;4.60;;;;;;;13.86;86.90;100348.69;3611607;39;20424;-59
2022/10/21 05:51:32;;;;;;;8.68;4.97;;;;;;;13.79;87.23;100339.41;3610300;39;20105;-60
2022/10/21 05:53:57;;;;;;;9.10;5.13;;;;;;;13.80;87.08;100346.53;3613264;39;20405;-62
2022/10/21 05:56:23;;;;;;;7.25;4.63;;;;;;;13.78;88.00;100351.19;3610771;39;20050;-60
2022/10/21 05:58:50;;;;;;;10.10;4.63;;;;;;;13.76;87.72;100354.00;3609199;39;20127;-60
2022/10/21 06:01:16;;;;;;;6.63;4.55;;;;;;;13.69;87.62;100339.31;3610298;39;20040;-60
2022/10/21 06:03:42;;;;;;;9.77;4.82;;;;;;;13.64;88.29;100326.19;3611456;39;20068;-59
2022/10/21 06:06:08;;;;;;;8.75;4.75;;;;;;;13.82;88.42;100349.94;3602275;39;20342;-60
2022/10/21 06:08:37;;;;;;;7.55;5.07;;;;;;;13.83;88.46;100349.00;3613252;39;20098;-59
2022/10/21 06:11:11;;;;;;;7.47;4.93;;;;;;;13.82;88.18;100355.34;3613113;39;20091;-62
2022/10/21 06:13:38;;;;;;;7.38;4.13;;;;;;;13.82;88.44;100344.53;3614441;39;20377;-59
2022/10/21 06:16:06;;;;;;;8.10;4.38;;;;;;;13.84;88.47;100350.69;3612715;39;20059;-60
2022/10/21 06:18:31;;;;;;;7.30;4.53;;;;;;;13.84;88.23;100342.59;3607039;39;20062;-60
2022/10/21 06:20:57;;;;;;;9.43;4.68;;;;;;;13.84;88.12;100345.28;3610848;39;20081;-59
2022/10/21 06:23:23;;;;;;;9.88;4.38;;;;;;;13.77;88.00;100331.44;3610759;39;20397;-60
2022/10/21 06:25:58;;;;;;;6.50;4.30;;;;;;;13.83;87.44;100340.88;3610582;39;20051;-60
2022/10/21 06:28:25;;;;;;;9.32;4.80;;;;;;;13.85;88.38;100344.28;3601371;39;20316;-60
2022/10/21 06:30:51;;;;;;;10.23;5.05;;;;;;;13.87;88.76;100343.19;3608484;39;20705;-59
2022/10/21 06:33:17;;;;;;;7.85;4.60;;;;;;;13.78;88.25;100329.59;3611458;39;20055;-62
2022/10/21 06:35:42;;;;;;;10.68;4.93;;;;;;;13.88;88.04;100344.03;3609510;39;20393;-59
2022/10/21 06:38:08;;;;;;;7.85;4.40;;;;;;;13.89;88.59;100353.84;3607021;39;20054;-58
2022/10/21 06:40:33;;;;;;;8.43;4.65;;;;;;;13.93;88.67;100358.03;3610008;39;20055;-60
2022/10/21 06:42:59;;;;;;;9.82;4.03;;;;;;;13.98;88.70;100366.59;3608481;39;20404;-60
2022/10/21 06:45:25;;;;;;;7.47;4.15;;;;;;;13.96;88.35;100362.34;3610558;39;20109;-60
2022/10/21 06:47:50;;;;;;;9.02;4.32;;;;;;;14.07;87.95;100379.34;3607815;39;20059;-60
2022/10/21 06:50:17;;;;;;;9.48;4.20;;;;;;;14.12;88.65;100377.13;3606724;39;20067;-59
2022/10/21 06:52:43;;;;;;;11.00;4.63;;;;;;;13.81;89.08;100326.63;3611025;39;20055;-59
2022/10/21 06:55:08;;;;;;;6.07;4.07;;;;;;;14.28;88.75;100378.53;3607710;39;20047;-60
2022/10/21 06:57:34;;;;;;;6.80;4.00;;;;;;;14.36;88.48;100381.44;3608310;39;20046;-59
2022/10/21 07:00:00;;;;;;;5.90;3.58;;;;;;;14.38;88.00;100385.72;3604722;39;20309;-60
2022/10/21 07:02:26;;;;;;;5.38;3.70;;;;;;;14.50;88.21;100397.34;3606641;39;20067;-59
2022/10/21 07:04:52;;;;;;;7.63;4.03;;;;;;;14.57;87.67;100406.69;3608550;39;20173;-60
2022/10/21 07:07:18;;;;;;;5.50;3.13;;;;;;;14.63;87.09;100403.47;3609695;39;20043;-60
2022/10/21 07:09:44;;;;;;;7.03;3.78;;;;;;;14.70;87.56;100411.06;3606877;39;20053;-60
2022/10/21 07:12:10;;;;;;;9.32;3.90;;;;;;;14.63;86.86;100400.75;3607100;39;20351;-60
2022/10/21 07:14:36;;;;;;;7.13;4.07;;;;;;;14.79;86.93;100415.69;3606122;39;20059;-60
2022/10/21 07:17:03;;;;;;;6.60;3.70;;;;;;;14.85;86.80;100426.84;3607399;39;20277;-60
2022/10/21 07:19:29;;;;;;;9.82;3.78;;;;;;;14.87;86.19;100421.28;3609320;39;20075;-60
2022/10/21 07:21:54;;;;;;;5.50;3.50;;;;;;;14.92;85.89;100427.16;3609370;39;20123;-58
2022/10/21 07:24:20;;;;;;;6.03;3.53;;;;;;;14.95;86.28;100421.47;3608909;39;20065;-60
2022/10/21 07:26:46;;;;;;;9.30;3.58;;;;;;;14.99;85.89;100422.91;3607755;39;20054;-60
2022/10/21 07:29:12;;;;;;;8.27;3.75;;;;;;;15.03;86.01;100418.09;3607962;39;20280;-60
2022/10/21 07:31:38;;;;;;;17.08;7.50;;;;;;;15.06;85.73;100426.84;3609894;39;20047;-60
2022/10/21 07:34:07;;;;;;;11.63;5.47;;;;;;;15.11;85.68;100425.56;3609371;39;20054;-60
2022/10/21 07:36:37;;;;;;;10.23;3.92;;;;;;;15.13;85.36;100421.75;3608819;39;20059;-58
2022/10/21 07:39:12;;;;;;;8.55;3.60;;;;;;;15.17;84.86;100430.44;3607756;39;20313;-59
2022/10/21 07:41:47;;;;;;;5.68;3.17;;;;;;;15.23;85.15;100438.03;3609526;39;20058;-59
2022/10/21 07:44:15;;;;;;;7.97;3.45;;;;;;;15.28;84.61;100446.59;3608730;39;20059;-59
2022/10/21 07:46:43;;;;;;;9.77;3.88;;;;;;;15.30;84.77;100437.34;3609392;39;20123;-59
2022/10/21 07:49:10;;;;;;;7.75;3.63;;;;;;;15.35;84.44;100444.19;3609003;39;20060;-59
2022/10/21 07:51:38;;;;;;;7.03;4.32;;;;;;;15.40;84.30;100444.66;3611134;39;20127;-59
2022/10/21 07:54:04;;;;;;;7.05;4.03;;;;;;;15.43;84.01;100447.97;3610127;39;20055;-58
2022/10/21 07:56:38;;;;;;;6.97;3.80;;;;;;;15.48;84.81;100450.28;3609101;39;20095;-59
2022/10/21 07:59:06;;;;;;;6.03;3.65;;;;;;;15.39;84.73;100426.72;3607358;39;20069;-58
2022/10/21 08:01:32;;;;;;;7.32;3.60;;;;;;;15.56;84.51;100447.72;3607625;39;20304;-58
2022/10/21 08:03:58;;;;;;;8.20;4.70;;;;;;;15.63;84.44;100448.03;3606980;39;20403;-58
2022/10/21 08:06:25;;;;;;;6.25;4.07;;;;;;;15.64;84.06;100450.63;3610059;39;20074;-58
2022/10/21 08:08:52;;;;;;;6.25;3.95;;;;;;;15.67;84.11;100436.00;3610632;39;20076;-59
2022/10/21 08:11:30;;;;;;;8.98;4.50;;;;;;;15.66;84.19;100434.22;3608773;39;20067;-59
2022/10/21 08:13:57;;;;;;;7.13;4.10;;;;;;;15.66;84.46;100436.94;3609798;39;20066;-59
2022/10/21 08:16:24;;;;;;;9.55;4.35;;;;;;;15.65;84.37;100429.81;3606274;39;20077;-58
2022/10/21 08:18:50;;;;;;;8.30;4.38;;;;;;;15.64;84.25;100436.22;3604739;39;20079;-59
2022/10/21 08:21:16;;;;;;;11.68;4.53;;;;;;;15.62;84.01;100432.78;3607131;39;20051;-59
2022/10/21 08:23:42;;;;;;;8.70;4.43;;;;;;;15.62;84.73;100446.34;3608595;39;20161;-59
2022/10/21 08:26:14;;;;;;;9.77;4.68;;;;;;;15.58;84.88;100455.75;3608004;39;20083;-58
2022/10/21 08:28:40;;;;;;;5.97;4.22;;;;;;;15.53;85.22;100459.69;3610402;39;20055;-58
2022/10/21 08:31:14;;;;;;;9.02;5.45;;;;;;;15.51;85.73;100453.56;3607932;39;20344;-59
2022/10/21 08:33:40;;;;;;;;;;;;;;;15.47;85.75;100457.53;3611561;39;20051;-59
2022/10/21 08:36:16;;;;;;;10.00;4.70;;;;;;;15.49;85.94;100465.53;3608873;39;19930;-59
2022/10/21 08:38:42;;;;;;;5.78;4.45;;;;;;;15.48;86.06;100461.97;3609661;39;20378;-59
2022/10/21 08:41:29;;;;;;;8.98;5.40;;;;;;;15.48;86.54;100456.53;3604928;39;20055;-59
2022/10/21 08:44:35;;;;;;;9.52;4.72;;;;;;;15.48;86.84;100470.09;3607245;39;20427;-59
2022/10/21 08:47:14;;;;;;;10.30;5.60;;;;;;;15.50;86.39;100465.38;3609023;39;20058;-60
2022/10/21 08:50:09;;;;;;;7.75;4.80;;;;;;;15.51;86.60;100461.69;3606652;39;20387;-59
2022/10/21 08:52:52;;;;;;;12.18;5.03;;;;;;;15.53;86.33;100458.84;3610141;39;20054;-58
2022/10/21 08:55:39;;;;;;;8.93;4.80;;;;;;;15.53;86.88;100475.94;3608465;39;20290;-60
2022/10/21 08:58:13;;;;;;;11.95;5.63;;;;;;;15.52;86.36;100490.50;3607044;39;20135;-59
2022/10/21 09:00:57;;;;;;;8.90;5.10;;;;;;;15.50;86.88;100481.63;3601904;39;20071;-60
2022/10/21 09:03:56;;;;;;;6.95;4.68;;;;;;;15.48;87.30;100480.94;3606656;39;20067;-59
2022/10/21 09:06:43;;;;;;;11.75;6.80;;;;;;;15.48;87.90;100486.34;3605243;39;21527;-60
2022/10/21 09:09:26;;;;;;;8.55;5.65;;;;;;;15.49;87.98;100490.75;3605708;39;20043;-60
2022/10/21 09:12:01;;;;;;;7.75;4.72;;;;;;;15.51;89.40;100477.94;3605972;39;20059;-59
2022/10/21 09:14:56;;;;;;;7.82;4.30;;;;;;;15.50;89.91;100487.06;3610603;39;20058;-59
2022/10/21 09:18:19;;;;;;;10.43;4.10;;;;;;;15.53;90.17;100470.53;3607445;39;20051;-59
2022/10/21 09:21:15;;;;;;;6.70;3.58;;;;;;;15.55;89.80;100465.00;3609081;39;20239;-59
2022/10/21 09:24:01;;;;;;;6.80;3.35;;;;;;;15.61;89.93;100463.59;3607434;39;20071;-59
2022/10/21 09:26:40;;;;;;;7.18;3.20;;;;;;;15.70;89.85;100473.66;3607694;39;20163;-59
2022/10/21 09:29:26;;;;;;;7.07;3.35;;;;;;;15.80;89.75;100466.41;3604844;39;20056;-58
2022/10/21 09:32:00;;;;;;;3.70;2.55;;;;;;;15.94;88.46;100473.28;3604448;39;20062;-58
2022/10/21 09:34:39;;;;;;;5.50;2.28;;;;;;;16.10;88.14;100478.19;3609226;39;20067;-59
2022/10/21 09:37:19;;;;;;;13.05;6.82;;;;;;;16.22;88.09;100477.06;3609741;39;20123;-60
2022/10/21 09:39:58;;;;;;;6.60;4.30;;;;;;;16.33;88.30;100467.94;3607854;39;20109;-59
2022/10/21 09:42:24;;;;;;;7.55;3.13;;;;;;;16.11;87.23;100404.84;3609771;39;20437;-59
2022/10/21 09:44:49;;;;;;;6.28;2.60;;;;;;;16.53;87.97;100471.56;3608013;39;20085;-60
2022/10/21 09:47:22;;;;;;;7.38;4.28;;;;;;;16.60;87.44;100464.53;3607973;39;20050;-59
2022/10/21 09:49:57;;;;;;;10.90;6.55;;;;;;;16.66;87.48;100466.69;3607527;39;20283;-60
2022/10/21 09:52:31;;;;;;;7.47;3.90;;;;;;;16.76;88.75;100464.84;3606401;39;20059;-59
2022/10/21 09:54:58;;;;;;;7.20;3.63;;;;;;;16.84;88.92;100470.44;3610604;39;20055;-59
2022/10/21 09:57:44;;;;;;;10.05;4.22;;;;;;;16.91;89.08;100463.41;3608903;39;20087;-58
2022/10/21 10:00:10;;;;;;;6.95;3.97;;;;;;;16.97;88.43;100474.69;3611111;39;20361;-59
2022/10/21 10:02:44;;;;;;;5.53;3.70;;;;;;;16.99;88.80;100473.53;3608836;39;20310;-59
2022/10/21 10:05:33;;;;;;;6.20;3.85;;;;;;;17.05;88.23;100477.53;3609567;39;20143;-60
2022/10/21 10:07:58;;;;;;;7.25;4.45;;;;;;;17.10;88.14;100478.84;3609130;39;20935;-59
2022/10/21 10:10:33;;;;;;;7.03;3.80;;;;;;;17.13;88.61;100472.25;3611035;39;20073;-60
2022/10/21 10:12:59;;;;;;;6.40;3.92;;;;;;;17.19;87.95;100477.09;3611182;39;20163;-60
2022/10/21 10:15:36;;;;;;;7.40;4.05;;;;;;;17.28;88.67;100478.06;3610003;39;20055;-60
2022/10/21 10:18:02;;;;;;;8.70;3.78;;;;;;;17.35;87.64;100484.66;3607460;39;20057;-59
2022/10/21 10:20:28;;;;;;;9.10;4.50;;;;;;;17.42;88.30;100496.63;3607927;39;20094;-60
2022/10/21 10:22:59;;;;;;;13.85;6.10;;;;;;;17.49;87.60;100488.75;3609785;39;20051;-60
2022/10/21 10:25:34;;;;;;;8.50;4.55;;;;;;;17.56;87.92;100485.28;3607346;39;20120;-59
2022/10/21 10:28:17;;;;;;;6.13;4.45;;;;;;;17.76;87.17;100493.34;3611735;39;20059;-62
2022/10/21 10:30:42;;;;;;;10.20;4.72;;;;;;;17.89;85.62;100493.94;3608523;39;20074;-61
2022/10/21 10:33:22;;;;;;;11.43;5.18;;;;;;;18.01;85.04;100491.84;3610705;39;20055;-61
2022/10/21 10:36:04;;;;;;;7.93;4.78;;;;;;;18.12;83.32;100494.38;3610543;39;20393;-61
2022/10/21 10:38:41;;;;;;;7.15;4.53;;;;;;;18.21;82.94;100495.31;3600988;39;21798;-61
2022/10/21 10:41:17;;;;;;;10.07;4.57;;;;;;;18.31;82.98;100493.41;3606307;39;20296;-62
2022/10/21 10:43:54;;;;;;;8.90;4.57;;;;;;;18.42;81.95;100497.75;3606354;39;20054;-61
2022/10/21 10:46:33;;;;;;;8.80;4.30;;;;;;;18.62;80.87;100488.44;3606917;39;20173;-61
2022/10/21 10:49:18;;;;;;;6.78;4.30;;;;;;;18.71;80.33;100492.09;3609061;39;20061;-61
2022/10/21 10:52:02;;;;;;;7.70;3.85;;;;;;;18.79;79.46;100492.22;3607522;39;20047;-62
2022/10/21 10:54:27;;;;;;;7.13;4.13;;;;;;;19.03;78.90;100494.31;3606463;39;20338;-61
2022/10/21 10:57:10;;;;;;;7.13;3.95;;;;;;;19.48;78.94;100495.97;3606259;39;20082;-61
2022/10/21 10:59:43;;;;;;;8.20;4.30;;;;;;;19.87;75.71;100492.81;3604758;39;20131;-61
2022/10/21 11:02:09;;;;;;;10.40;5.88;;;;;;;20.14;73.13;100492.59;3607019;39;20053;-61
2022/10/21 11:05:09;;;;;;;7.32;4.32;;;;;;;20.35;73.40;100494.00;3606211;39;20106;-61
2022/10/21 11:07:53;;;;;;;8.65;5.93;;;;;;;20.22;72.05;100460.88;3610125;39;20409;-60
2022/10/21 11:10:32;;;;;;;7.65;4.05;;;;;;;20.21;70.58;100459.19;3606530;39;20055;-60
2022/10/21 11:13:08;;;;;;;5.20;3.42;;;;;;;20.34;70.85;100470.47;3608610;39;20046;-61
2022/10/21 11:16:44;;;;;;;6.32;3.88;;;;;;;20.42;69.60;100462.28;3607639;39;20059;-61
2022/10/21 11:20:18;;;;;;;5.07;3.15;;;;;;;20.48;69.56;100458.88;3565597;40;20084;-61
2022/10/21 11:23:51;;;;;;;5.70;3.83;;;;;;;21.05;70.77;100452.63;3587038;39;20149;-61
2022/10/21 11:26:36;;;;;;;6.93;3.38;;;;;;;21.71;65.47;100464.31;3600584;39;20095;-61
2022/10/21 11:29:39;;;;;;;4.53;2.20;;;;;;;22.30;65.44;100481.19;3606511;39;20063;-62
2022/10/21 11:32:45;;;;;;;7.95;2.63;;;;;;;22.74;60.67;100477.84;3608407;39;20061;-61
2022/10/21 11:35:31;;;;;;;3.10;2.22;;;;;;;23.15;60.33;100488.47;3607897;39;20150;-61
2022/10/21 11:38:21;;;;;;;5.88;3.28;;;;;;;23.47;58.33;100489.19;3608536;39;20047;-61
2022/10/21 11:41:17;;;;;;;7.55;3.60;;;;;;;23.67;58.62;100486.78;3608934;39;20050;-59
2022/10/21 11:43:54;;;;;;;4.95;2.22;;;;;;;23.79;56.76;100493.53;3608051;39;20069;-60